This is the latest recevied weather packets stored in our database for station/object KM6LYW-3. If no packets are shown the sender has not sent any weather packets the latest 10 day(s).
| Time | Temp. | Humidity | Pressure | Rain* | Wind** | Luminosity | Snow |
|---|---|---|---|---|---|---|---|
| 1788595205 | 11.67° C | 84% | 1018.2 hPa | 0 mm | - | - | - |
| 1788591606 | 12.22° C | 82% | 1018.2 hPa | 0 mm | - | - | - |
| 1788537606 | 13.89° C | 99% | 1016.9 hPa | 0.51 mm | - | - | - |
| 1788526806 | 13.89° C | 99% | 1015.3 hPa | 1.02 mm | - | - | - |
| 1788523206 | 13.89° C | 99% | 1015 hPa | 0.76 mm | - | - | - |
| 1788519606 | 14.44° C | 99% | 1014.5 hPa | 5.84 mm | - | - | - |
| 1788508805 | 15° C | 99% | 1014.6 hPa | 0 mm | - | - | - |
| 1788501605 | 16.67° C | 85% | 1014.1 hPa | 0 mm | - | - | - |
| 1788498005 | 17.22° C | 84% | 1014.4 hPa | 0 mm | - | - | - |
| 1788494405 | 17.22° C | 83% | 1014.2 hPa | 0 mm | - | - | - |
| 1788472806 | 21.11° C | 63% | 1015.1 hPa | 0 mm | - | - | - |
| 1788469206 | 21.67° C | 57% | 1015 hPa | 0 mm | - | - | - |
| 1788465605 | 21.67° C | 57% | 1015.4 hPa | 0 mm | - | - | - |
| 1788447606 | 13.89° C | 82% | 1018.4 hPa | 0 mm | - | - | - |
| 1788444006 | 13.89° C | 80% | 1017.9 hPa | 0 mm | - | - | - |
| 1788433205 | 14.44° C | 80% | 1018.4 hPa | 0 mm | - | - | - |
| 1788426006 | 14.44° C | 82% | 1018.9 hPa | 0 mm | - | - | - |
| 1788422406 | 13.89° C | 83% | 1019 hPa | 0 mm | - | - | - |
| 1788418806 | 13.89° C | 84% | 1019.2 hPa | 0 mm | - | - | - |
| 1788415206 | 14.44° C | 81% | 1019.2 hPa | 0 mm | - | - | - |
| 1788411605 | 15.56° C | 76% | 1019.1 hPa | 0 mm | - | - | - |
| 1788408006 | 17.22° C | 69% | 1018.2 hPa | 0 mm | - | - | - |
| 1788404406 | 19.44° C | 61% | 1017.3 hPa | 0 mm | - | - | - |
| 1788368405 | 18.89° C | 56% | 1019.7 hPa | 0 mm | - | - | - |
| 1788364806 | 15° C | 73% | 1020.6 hPa | 0 mm | - | - | - |
* Rain latest hour (hover to see other rain measurements)
** Current wind speed in m/s (hover to see current wind gust speed)